sensor_id;sensor_type;location;lat;lon;timestamp;P1;durP1;ratioP1;P2;durP2;ratioP2
25263;SDS011;13211;51.796;5.808;2022-10-16T00:03:32;10.63;;;3.60;;
25263;SDS011;13211;51.796;5.808;2022-10-16T00:05:59;7.95;;;4.15;;
25263;SDS011;13211;51.796;5.808;2022-10-16T00:08:27;9.70;;;4.30;;
25263;SDS011;13211;51.796;5.808;2022-10-16T00:11:15;9.73;;;4.20;;
25263;SDS011;13211;51.796;5.808;2022-10-16T00:13:45;6.70;;;4.03;;
25263;SDS011;13211;51.796;5.808;2022-10-16T00:16:13;9.13;;;3.95;;
25263;SDS011;13211;51.796;5.808;2022-10-16T00:18:41;14.35;;;4.13;;
25263;SDS011;13211;51.796;5.808;2022-10-16T00:21:14;17.98;;;4.10;;
25263;SDS011;13211;51.796;5.808;2022-10-16T00:23:42;12.68;;;4.70;;
25263;SDS011;13211;51.796;5.808;2022-10-16T00:26:11;10.80;;;4.53;;
25263;SDS011;13211;51.796;5.808;2022-10-16T00:28:40;16.73;;;4.50;;
25263;SDS011;13211;51.796;5.808;2022-10-16T00:31:08;10.27;;;4.60;;
25263;SDS011;13211;51.796;5.808;2022-10-16T00:33:37;11.60;;;4.22;;
25263;SDS011;13211;51.796;5.808;2022-10-16T00:36:06;11.48;;;4.82;;
25263;SDS011;13211;51.796;5.808;2022-10-16T00:38:34;14.52;;;4.53;;
25263;SDS011;13211;51.796;5.808;2022-10-16T00:41:01;11.73;;;4.75;;
25263;SDS011;13211;51.796;5.808;2022-10-16T00:43:42;10.20;;;4.78;;
25263;SDS011;13211;51.796;5.808;2022-10-16T00:46:17;12.80;;;4.93;;
25263;SDS011;13211;51.796;5.808;2022-10-16T00:48:49;7.68;;;4.40;;
25263;SDS011;13211;51.796;5.808;2022-10-16T00:51:19;13.07;;;5.43;;
25263;SDS011;13211;51.796;5.808;2022-10-16T00:53:49;9.48;;;5.05;;
25263;SDS011;13211;51.796;5.808;2022-10-16T00:56:17;7.97;;;4.20;;
25263;SDS011;13211;51.796;5.808;2022-10-16T00:58:45;8.35;;;4.85;;
25263;SDS011;13211;51.796;5.808;2022-10-16T01:01:13;9.32;;;4.60;;
25263;SDS011;13211;51.796;5.808;2022-10-16T01:03:41;10.98;;;4.80;;
25263;SDS011;13211;51.796;5.808;2022-10-16T01:14:27;9.95;;;5.63;;
25263;SDS011;13211;51.796;5.808;2022-10-16T01:17:11;9.48;;;4.72;;
25263;SDS011;13211;51.796;5.808;2022-10-16T01:22:32;10.60;;;4.80;;
25263;SDS011;13211;51.796;5.808;2022-10-16T01:25:01;13.23;;;5.00;;
25263;SDS011;13211;51.796;5.808;2022-10-16T01:27:31;7.65;;;4.47;;
25263;SDS011;13211;51.796;5.808;2022-10-16T01:32:38;8.82;;;4.85;;
25263;SDS011;13211;51.796;5.808;2022-10-16T01:35:11;10.50;;;4.60;;
25263;SDS011;13211;51.796;5.808;2022-10-16T01:40:12;11.82;;;5.03;;
25263;SDS011;13211;51.796;5.808;2022-10-16T01:42:48;12.27;;;4.70;;
25263;SDS011;13211;51.796;5.808;2022-10-16T01:45:17;12.43;;;5.07;;
25263;SDS011;13211;51.796;5.808;2022-10-16T01:47:46;12.52;;;4.80;;
25263;SDS011;13211;51.796;5.808;2022-10-16T01:50:15;9.60;;;5.00;;
25263;SDS011;13211;51.796;5.808;2022-10-16T01:52:44;11.02;;;4.20;;
25263;SDS011;13211;51.796;5.808;2022-10-16T01:55:13;10.10;;;4.63;;
25263;SDS011;13211;51.796;5.808;2022-10-16T01:57:42;11.63;;;5.00;;
25263;SDS011;13211;51.796;5.808;2022-10-16T02:00:13;11.88;;;4.40;;
25263;SDS011;13211;51.796;5.808;2022-10-16T02:02:41;10.43;;;4.90;;
25263;SDS011;13211;51.796;5.808;2022-10-16T02:05:12;9.75;;;4.30;;
25263;SDS011;13211;51.796;5.808;2022-10-16T02:07:43;11.48;;;4.22;;
25263;SDS011;13211;51.796;5.808;2022-10-16T02:10:10;9.75;;;3.80;;
25263;SDS011;13211;51.796;5.808;2022-10-16T02:12:38;10.55;;;4.30;;
25263;SDS011;13211;51.796;5.808;2022-10-16T02:15:08;8.63;;;4.45;;
25263;SDS011;13211;51.796;5.808;2022-10-16T02:17:36;6.35;;;4.07;;
25263;SDS011;13211;51.796;5.808;2022-10-16T02:20:04;10.43;;;3.88;;
25263;SDS011;13211;51.796;5.808;2022-10-16T02:22:33;15.30;;;3.90;;
25263;SDS011;13211;51.796;5.808;2022-10-16T02:25:04;7.25;;;3.63;;
25263;SDS011;13211;51.796;5.808;2022-10-16T02:27:34;9.55;;;3.83;;
25263;SDS011;13211;51.796;5.808;2022-10-16T02:32:40;11.60;;;3.58;;
25263;SDS011;13211;51.796;5.808;2022-10-16T02:35:09;8.13;;;3.38;;
25263;SDS011;13211;51.796;5.808;2022-10-16T02:37:37;5.97;;;3.25;;
25263;SDS011;13211;51.796;5.808;2022-10-16T02:40:06;6.82;;;3.30;;
25263;SDS011;13211;51.796;5.808;2022-10-16T02:42:38;9.90;;;3.38;;
25263;SDS011;13211;51.796;5.808;2022-10-16T02:45:06;8.30;;;2.90;;
25263;SDS011;13211;51.796;5.808;2022-10-16T02:47:34;9.65;;;2.95;;
25263;SDS011;13211;51.796;5.808;2022-10-16T02:50:02;12.27;;;3.22;;
25263;SDS011;13211;51.796;5.808;2022-10-16T02:52:30;11.35;;;3.10;;
25263;SDS011;13211;51.796;5.808;2022-10-16T02:54:58;6.75;;;2.97;;
25263;SDS011;13211;51.796;5.808;2022-10-16T02:57:26;9.43;;;3.00;;
25263;SDS011;13211;51.796;5.808;2022-10-16T02:59:54;5.53;;;2.97;;
25263;SDS011;13211;51.796;5.808;2022-10-16T03:02:22;10.50;;;2.80;;
25263;SDS011;13211;51.796;5.808;2022-10-16T03:04:50;5.97;;;3.08;;
25263;SDS011;13211;51.796;5.808;2022-10-16T03:07:19;5.80;;;2.92;;
25263;SDS011;13211;51.796;5.808;2022-10-16T03:09:47;4.28;;;3.00;;
25263;SDS011;13211;51.796;5.808;2022-10-16T03:12:17;9.32;;;3.60;;
25263;SDS011;13211;51.796;5.808;2022-10-16T03:14:45;7.10;;;2.95;;
25263;SDS011;13211;51.796;5.808;2022-10-16T03:17:12;5.25;;;3.17;;
25263;SDS011;13211;51.796;5.808;2022-10-16T03:19:43;6.43;;;3.08;;
25263;SDS011;13211;51.796;5.808;2022-10-16T03:22:10;7.68;;;3.05;;
25263;SDS011;13211;51.796;5.808;2022-10-16T03:24:38;6.43;;;3.08;;
25263;SDS011;13211;51.796;5.808;2022-10-16T03:27:05;8.90;;;3.22;;
25263;SDS011;13211;51.796;5.808;2022-10-16T03:29:33;6.47;;;2.92;;
25263;SDS011;13211;51.796;5.808;2022-10-16T03:32:02;4.88;;;3.03;;
25263;SDS011;13211;51.796;5.808;2022-10-16T03:34:30;5.95;;;2.70;;
25263;SDS011;13211;51.796;5.808;2022-10-16T03:36:58;5.93;;;2.95;;
25263;SDS011;13211;51.796;5.808;2022-10-16T03:39:25;5.55;;;2.83;;
25263;SDS011;13211;51.796;5.808;2022-10-16T03:41:53;12.60;;;3.25;;
25263;SDS011;13211;51.796;5.808;2022-10-16T03:44:21;8.05;;;3.63;;
25263;SDS011;13211;51.796;5.808;2022-10-16T03:46:49;5.63;;;3.03;;
25263;SDS011;13211;51.796;5.808;2022-10-16T03:49:19;7.65;;;3.40;;
25263;SDS011;13211;51.796;5.808;2022-10-16T03:51:50;10.43;;;2.97;;
25263;SDS011;13211;51.796;5.808;2022-10-16T03:54:18;10.70;;;3.08;;
25263;SDS011;13211;51.796;5.808;2022-10-16T03:56:46;6.93;;;3.20;;
25263;SDS011;13211;51.796;5.808;2022-10-16T03:59:13;4.70;;;2.70;;
25263;SDS011;13211;51.796;5.808;2022-10-16T04:01:41;6.35;;;2.90;;
25263;SDS011;13211;51.796;5.808;2022-10-16T04:04:08;5.18;;;3.05;;
25263;SDS011;13211;51.796;5.808;2022-10-16T04:06:36;6.72;;;3.10;;
25263;SDS011;13211;51.796;5.808;2022-10-16T04:09:04;9.40;;;2.80;;
25263;SDS011;13211;51.796;5.808;2022-10-16T04:11:31;8.52;;;3.22;;
25263;SDS011;13211;51.796;5.808;2022-10-16T04:13:59;9.38;;;3.40;;
25263;SDS011;13211;51.796;5.808;2022-10-16T04:16:27;7.28;;;3.15;;
25263;SDS011;13211;51.796;5.808;2022-10-16T04:18:54;4.60;;;2.83;;
25263;SDS011;13211;51.796;5.808;2022-10-16T04:21:22;6.28;;;3.10;;
25263;SDS011;13211;51.796;5.808;2022-10-16T04:23:50;5.78;;;2.90;;
25263;SDS011;13211;51.796;5.808;2022-10-16T04:28:48;8.60;;;2.60;;
25263;SDS011;13211;51.796;5.808;2022-10-16T04:31:17;5.47;;;3.13;;
25263;SDS011;13211;51.796;5.808;2022-10-16T04:33:44;9.20;;;3.03;;
25263;SDS011;13211;51.796;5.808;2022-10-16T04:36:12;4.75;;;3.00;;
25263;SDS011;13211;51.796;5.808;2022-10-16T04:38:40;8.13;;;3.20;;
25263;SDS011;13211;51.796;5.808;2022-10-16T04:41:07;6.90;;;3.10;;
25263;SDS011;13211;51.796;5.808;2022-10-16T04:43:35;4.80;;;2.88;;
25263;SDS011;13211;51.796;5.808;2022-10-16T04:46:02;6.38;;;3.00;;
25263;SDS011;13211;51.796;5.808;2022-10-16T04:48:31;6.03;;;3.10;;
25263;SDS011;13211;51.796;5.808;2022-10-16T04:50:59;7.75;;;3.00;;
25263;SDS011;13211;51.796;5.808;2022-10-16T04:53:27;7.75;;;3.08;;
25263;SDS011;13211;51.796;5.808;2022-10-16T04:55:54;6.00;;;2.63;;
25263;SDS011;13211;51.796;5.808;2022-10-16T04:58:23;5.60;;;3.20;;
25263;SDS011;13211;51.796;5.808;2022-10-16T05:00:51;5.80;;;2.80;;
25263;SDS011;13211;51.796;5.808;2022-10-16T05:03:22;7.95;;;2.78;;
25263;SDS011;13211;51.796;5.808;2022-10-16T05:05:50;5.28;;;2.70;;
25263;SDS011;13211;51.796;5.808;2022-10-16T05:08:18;6.93;;;2.60;;
25263;SDS011;13211;51.796;5.808;2022-10-16T05:10:47;6.17;;;2.40;;
25263;SDS011;13211;51.796;5.808;2022-10-16T05:13:15;7.20;;;2.90;;
25263;SDS011;13211;51.796;5.808;2022-10-16T05:15:46;6.38;;;2.70;;
25263;SDS011;13211;51.796;5.808;2022-10-16T05:18:15;6.72;;;2.80;;
25263;SDS011;13211;51.796;5.808;2022-10-16T05:20:43;10.05;;;2.92;;
25263;SDS011;13211;51.796;5.808;2022-10-16T05:23:10;6.50;;;2.80;;
25263;SDS011;13211;51.796;5.808;2022-10-16T05:25:38;4.03;;;2.55;;
25263;SDS011;13211;51.796;5.808;2022-10-16T05:28:05;4.90;;;2.50;;
25263;SDS011;13211;51.796;5.808;2022-10-16T05:30:33;8.40;;;2.75;;
25263;SDS011;13211;51.796;5.808;2022-10-16T05:33:01;8.52;;;2.65;;
25263;SDS011;13211;51.796;5.808;2022-10-16T05:35:28;11.10;;;2.75;;
25263;SDS011;13211;51.796;5.808;2022-10-16T05:37:55;11.95;;;2.75;;
25263;SDS011;13211;51.796;5.808;2022-10-16T05:40:24;5.03;;;2.92;;
25263;SDS011;13211;51.796;5.808;2022-10-16T05:42:54;7.20;;;2.90;;
25263;SDS011;13211;51.796;5.808;2022-10-16T05:45:22;4.93;;;2.90;;
25263;SDS011;13211;51.796;5.808;2022-10-16T05:47:49;4.30;;;2.42;;
25263;SDS011;13211;51.796;5.808;2022-10-16T05:50:18;9.02;;;2.92;;
25263;SDS011;13211;51.796;5.808;2022-10-16T05:52:46;11.13;;;2.72;;
25263;SDS011;13211;51.796;5.808;2022-10-16T05:55:14;12.63;;;3.63;;
25263;SDS011;13211;51.796;5.808;2022-10-16T05:57:42;6.10;;;2.80;;
25263;SDS011;13211;51.796;5.808;2022-10-16T06:00:10;7.75;;;2.70;;
25263;SDS011;13211;51.796;5.808;2022-10-16T06:02:40;4.68;;;2.60;;
25263;SDS011;13211;51.796;5.808;2022-10-16T06:05:08;6.15;;;2.72;;
25263;SDS011;13211;51.796;5.808;2022-10-16T06:07:36;11.32;;;3.25;;
25263;SDS011;13211;51.796;5.808;2022-10-16T06:10:03;9.43;;;3.20;;
25263;SDS011;13211;51.796;5.808;2022-10-16T06:12:31;5.00;;;2.65;;
25263;SDS011;13211;51.796;5.808;2022-10-16T06:14:59;5.50;;;3.05;;
25263;SDS011;13211;51.796;5.808;2022-10-16T06:17:26;14.45;;;3.30;;
25263;SDS011;13211;51.796;5.808;2022-10-16T06:19:54;8.80;;;3.17;;
25263;SDS011;13211;51.796;5.808;2022-10-16T06:22:22;8.55;;;2.80;;
25263;SDS011;13211;51.796;5.808;2022-10-16T06:24:50;9.20;;;3.10;;
25263;SDS011;13211;51.796;5.808;2022-10-16T06:27:19;9.65;;;3.20;;
25263;SDS011;13211;51.796;5.808;2022-10-16T06:29:49;10.95;;;3.25;;
25263;SDS011;13211;51.796;5.808;2022-10-16T06:32:17;6.95;;;3.30;;
25263;SDS011;13211;51.796;5.808;2022-10-16T06:34:45;8.20;;;3.95;;
25263;SDS011;13211;51.796;5.808;2022-10-16T06:37:13;5.85;;;3.53;;
25263;SDS011;13211;51.796;5.808;2022-10-16T06:39:40;6.88;;;3.25;;
25263;SDS011;13211;51.796;5.808;2022-10-16T06:42:08;9.30;;;3.78;;
25263;SDS011;13211;51.796;5.808;2022-10-16T06:44:35;7.97;;;3.90;;
25263;SDS011;13211;51.796;5.808;2022-10-16T06:47:02;10.18;;;4.13;;
25263;SDS011;13211;51.796;5.808;2022-10-16T06:49:30;10.00;;;4.20;;
25263;SDS011;13211;51.796;5.808;2022-10-16T06:52:01;10.20;;;4.05;;
25263;SDS011;13211;51.796;5.808;2022-10-16T06:54:28;10.93;;;4.43;;
25263;SDS011;13211;51.796;5.808;2022-10-16T06:57:05;12.20;;;4.18;;
25263;SDS011;13211;51.796;5.808;2022-10-16T06:59:33;9.35;;;4.50;;
25263;SDS011;13211;51.796;5.808;2022-10-16T07:02:00;14.38;;;5.18;;
25263;SDS011;13211;51.796;5.808;2022-10-16T07:04:28;9.35;;;4.20;;
25263;SDS011;13211;51.796;5.808;2022-10-16T07:06:55;14.88;;;4.65;;
25263;SDS011;13211;51.796;5.808;2022-10-16T07:09:23;13.73;;;4.55;;
25263;SDS011;13211;51.796;5.808;2022-10-16T07:11:54;11.85;;;4.35;;
25263;SDS011;13211;51.796;5.808;2022-10-16T07:14:22;14.38;;;4.45;;
25263;SDS011;13211;51.796;5.808;2022-10-16T07:16:52;14.00;;;4.18;;
25263;SDS011;13211;51.796;5.808;2022-10-16T07:19:20;8.20;;;4.57;;
25263;SDS011;13211;51.796;5.808;2022-10-16T07:21:56;11.90;;;4.57;;
25263;SDS011;13211;51.796;5.808;2022-10-16T07:24:23;15.85;;;4.18;;
25263;SDS011;13211;51.796;5.808;2022-10-16T07:26:52;10.90;;;3.90;;
25263;SDS011;13211;51.796;5.808;2022-10-16T07:29:20;7.95;;;3.58;;
25263;SDS011;13211;51.796;5.808;2022-10-16T07:31:50;15.02;;;4.00;;
25263;SDS011;13211;51.796;5.808;2022-10-16T07:34:21;5.80;;;3.80;;
25263;SDS011;13211;51.796;5.808;2022-10-16T07:36:49;9.18;;;4.22;;
25263;SDS011;13211;51.796;5.808;2022-10-16T07:39:17;7.82;;;3.40;;
25263;SDS011;13211;51.796;5.808;2022-10-16T07:41:45;9.38;;;3.10;;
25263;SDS011;13211;51.796;5.808;2022-10-16T07:44:12;9.80;;;3.40;;
25263;SDS011;13211;51.796;5.808;2022-10-16T07:46:40;11.13;;;3.55;;
25263;SDS011;13211;51.796;5.808;2022-10-16T07:49:08;9.45;;;3.00;;
25263;SDS011;13211;51.796;5.808;2022-10-16T07:51:36;7.15;;;3.63;;
25263;SDS011;13211;51.796;5.808;2022-10-16T07:54:04;12.18;;;3.80;;
25263;SDS011;13211;51.796;5.808;2022-10-16T07:56:32;7.68;;;3.60;;
25263;SDS011;13211;51.796;5.808;2022-10-16T07:59:05;9.85;;;3.65;;
25263;SDS011;13211;51.796;5.808;2022-10-16T08:01:32;9.50;;;3.38;;
25263;SDS011;13211;51.796;5.808;2022-10-16T08:04:00;7.57;;;3.33;;
25263;SDS011;13211;51.796;5.808;2022-10-16T08:06:29;9.73;;;3.47;;
25263;SDS011;13211;51.796;5.808;2022-10-16T08:09:02;6.95;;;3.17;;
25263;SDS011;13211;51.796;5.808;2022-10-16T08:11:30;7.05;;;2.63;;
25263;SDS011;13211;51.796;5.808;2022-10-16T08:13:58;9.10;;;3.08;;
25263;SDS011;13211;51.796;5.808;2022-10-16T08:16:26;11.90;;;3.38;;
25263;SDS011;13211;51.796;5.808;2022-10-16T08:18:54;9.48;;;2.58;;
25263;SDS011;13211;51.796;5.808;2022-10-16T08:21:24;9.50;;;2.80;;
25263;SDS011;13211;51.796;5.808;2022-10-16T08:26:22;9.77;;;2.75;;
25263;SDS011;13211;51.796;5.808;2022-10-16T08:28:50;8.90;;;2.60;;
25263;SDS011;13211;51.796;5.808;2022-10-16T08:31:19;11.68;;;2.58;;
25263;SDS011;13211;51.796;5.808;2022-10-16T08:33:47;6.88;;;2.38;;
25263;SDS011;13211;51.796;5.808;2022-10-16T08:36:16;13.73;;;2.42;;
25263;SDS011;13211;51.796;5.808;2022-10-16T08:38:43;10.15;;;2.13;;
25263;SDS011;13211;51.796;5.808;2022-10-16T08:41:32;12.73;;;2.65;;
25263;SDS011;13211;51.796;5.808;2022-10-16T08:49:00;5.15;;;2.28;;
25263;SDS011;13211;51.796;5.808;2022-10-16T08:51:30;9.70;;;2.83;;
25263;SDS011;13211;51.796;5.808;2022-10-16T08:54:01;12.90;;;2.08;;
25263;SDS011;13211;51.796;5.808;2022-10-16T08:56:29;7.25;;;2.25;;
25263;SDS011;13211;51.796;5.808;2022-10-16T08:58:58;8.98;;;2.20;;
25263;SDS011;13211;51.796;5.808;2022-10-16T09:04:11;11.10;;;1.70;;
25263;SDS011;13211;51.796;5.808;2022-10-16T09:12:11;9.80;;;1.98;;
25263;SDS011;13211;51.796;5.808;2022-10-16T09:14:49;9.75;;;1.75;;
25263;SDS011;13211;51.796;5.808;2022-10-16T09:17:29;8.48;;;2.10;;
25263;SDS011;13211;51.796;5.808;2022-10-16T09:22:44;10.68;;;2.13;;
25263;SDS011;13211;51.796;5.808;2022-10-16T09:25:16;8.35;;;2.60;;
25263;SDS011;13211;51.796;5.808;2022-10-16T09:27:47;6.70;;;1.73;;
25263;SDS011;13211;51.796;5.808;2022-10-16T09:30:16;9.55;;;2.17;;
25263;SDS011;13211;51.796;5.808;2022-10-16T09:32:47;8.40;;;2.05;;
25263;SDS011;13211;51.796;5.808;2022-10-16T09:35:37;9.30;;;2.08;;
25263;SDS011;13211;51.796;5.808;2022-10-16T09:38:03;9.02;;;2.13;;
25263;SDS011;13211;51.796;5.808;2022-10-16T09:40:33;12.23;;;2.28;;
25263;SDS011;13211;51.796;5.808;2022-10-16T09:45:54;12.65;;;2.20;;
25263;SDS011;13211;51.796;5.808;2022-10-16T09:48:22;9.23;;;2.22;;
25263;SDS011;13211;51.796;5.808;2022-10-16T09:50:55;10.82;;;1.98;;
25263;SDS011;13211;51.796;5.808;2022-10-16T09:53:23;7.68;;;2.00;;
25263;SDS011;13211;51.796;5.808;2022-10-16T09:55:53;13.43;;;2.15;;
25263;SDS011;13211;51.796;5.808;2022-10-16T09:58:22;13.43;;;2.20;;
25263;SDS011;13211;51.796;5.808;2022-10-16T10:00:51;11.82;;;1.75;;
25263;SDS011;13211;51.796;5.808;2022-10-16T10:03:27;14.60;;;2.63;;
25263;SDS011;13211;51.796;5.808;2022-10-16T10:05:57;9.02;;;2.22;;
25263;SDS011;13211;51.796;5.808;2022-10-16T10:08:27;14.23;;;2.10;;
25263;SDS011;13211;51.796;5.808;2022-10-16T10:10:55;14.50;;;2.63;;
25263;SDS011;13211;51.796;5.808;2022-10-16T10:13:24;16.83;;;2.38;;
25263;SDS011;13211;51.796;5.808;2022-10-16T10:15:53;14.10;;;2.33;;
25263;SDS011;13211;51.796;5.808;2022-10-16T10:18:22;16.55;;;2.80;;
25263;SDS011;13211;51.796;5.808;2022-10-16T10:20:57;11.68;;;1.85;;
25263;SDS011;13211;51.796;5.808;2022-10-16T10:23:26;12.32;;;2.15;;
25263;SDS011;13211;51.796;5.808;2022-10-16T10:25:57;9.77;;;1.67;;
25263;SDS011;13211;51.796;5.808;2022-10-16T10:36:27;13.98;;;2.42;;
25263;SDS011;13211;51.796;5.808;2022-10-16T10:38:59;9.88;;;1.90;;
25263;SDS011;13211;51.796;5.808;2022-10-16T11:02:23;11.50;;;1.67;;
25263;SDS011;13211;51.796;5.808;2022-10-16T11:07:39;12.82;;;2.20;;
25263;SDS011;13211;51.796;5.808;2022-10-16T11:10:15;21.52;;;2.95;;
25263;SDS011;13211;51.796;5.808;2022-10-16T11:12:47;16.02;;;2.30;;
25263;SDS011;13211;51.796;5.808;2022-10-16T11:18:06;11.27;;;1.70;;
25263;SDS011;13211;51.796;5.808;2022-10-16T11:20:37;13.73;;;2.50;;
25263;SDS011;13211;51.796;5.808;2022-10-16T11:23:10;15.10;;;2.00;;
25263;SDS011;13211;51.796;5.808;2022-10-16T11:25:40;11.32;;;1.75;;
25263;SDS011;13211;51.796;5.808;2022-10-16T11:28:18;18.93;;;2.33;;
25263;SDS011;13211;51.796;5.808;2022-10-16T11:36:33;14.70;;;2.22;;
25263;SDS011;13211;51.796;5.808;2022-10-16T11:41:47;12.15;;;2.05;;
25263;SDS011;13211;51.796;5.808;2022-10-16T11:44:22;14.07;;;2.28;;
25263;SDS011;13211;51.796;5.808;2022-10-16T11:50:01;20.23;;;2.10;;
25263;SDS011;13211;51.796;5.808;2022-10-16T11:57:29;16.02;;;2.08;;
25263;SDS011;13211;51.796;5.808;2022-10-16T12:00:01;19.10;;;2.45;;
25263;SDS011;13211;51.796;5.808;2022-10-16T12:05:19;17.33;;;2.08;;
25263;SDS011;13211;51.796;5.808;2022-10-16T12:07:56;16.90;;;2.55;;
25263;SDS011;13211;51.796;5.808;2022-10-16T12:10:29;21.23;;;1.90;;
25263;SDS011;13211;51.796;5.808;2022-10-16T12:16:03;15.05;;;2.35;;
25263;SDS011;13211;51.796;5.808;2022-10-16T12:18:31;13.68;;;2.00;;
25263;SDS011;13211;51.796;5.808;2022-10-16T12:20:59;10.63;;;1.95;;
25263;SDS011;13211;51.796;5.808;2022-10-16T12:23:32;17.98;;;2.30;;
25263;SDS011;13211;51.796;5.808;2022-10-16T12:26:00;14.20;;;1.52;;
25263;SDS011;13211;51.796;5.808;2022-10-16T12:28:30;12.23;;;2.17;;
25263;SDS011;13211;51.796;5.808;2022-10-16T12:31:06;13.90;;;2.15;;
25263;SDS011;13211;51.796;5.808;2022-10-16T12:33:36;13.15;;;1.85;;
25263;SDS011;13211;51.796;5.808;2022-10-16T12:36:13;9.82;;;2.05;;
25263;SDS011;13211;51.796;5.808;2022-10-16T12:41:12;18.98;;;2.28;;
25263;SDS011;13211;51.796;5.808;2022-10-16T12:43:45;16.05;;;2.25;;
25263;SDS011;13211;51.796;5.808;2022-10-16T12:48:41;10.88;;;1.65;;
25263;SDS011;13211;51.796;5.808;2022-10-16T12:59:18;13.88;;;2.28;;
25263;SDS011;13211;51.796;5.808;2022-10-16T13:10:28;14.73;;;2.00;;
25263;SDS011;13211;51.796;5.808;2022-10-16T13:28:38;12.57;;;1.88;;
25263;SDS011;13211;51.796;5.808;2022-10-16T13:31:11;16.80;;;1.98;;
25263;SDS011;13211;51.796;5.808;2022-10-16T13:33:41;9.70;;;1.80;;
25263;SDS011;13211;51.796;5.808;2022-10-16T13:36:21;9.48;;;1.85;;
25263;SDS011;13211;51.796;5.808;2022-10-16T13:38:57;10.00;;;1.58;;
25263;SDS011;13211;51.796;5.808;2022-10-16T13:41:26;12.30;;;1.90;;
25263;SDS011;13211;51.796;5.808;2022-10-16T13:43:54;6.68;;;1.48;;
25263;SDS011;13211;51.796;5.808;2022-10-16T13:46:24;12.85;;;1.92;;
25263;SDS011;13211;51.796;5.808;2022-10-16T13:49:00;11.55;;;1.98;;
25263;SDS011;13211;51.796;5.808;2022-10-16T13:51:29;8.93;;;1.92;;
25263;SDS011;13211;51.796;5.808;2022-10-16T13:53:58;10.15;;;1.50;;
25263;SDS011;13211;51.796;5.808;2022-10-16T13:56:26;14.30;;;1.65;;
25263;SDS011;13211;51.796;5.808;2022-10-16T13:59:05;11.70;;;1.80;;
25263;SDS011;13211;51.796;5.808;2022-10-16T14:01:34;9.77;;;2.05;;
25263;SDS011;13211;51.796;5.808;2022-10-16T14:04:06;12.67;;;1.60;;
25263;SDS011;13211;51.796;5.808;2022-10-16T14:06:35;13.65;;;2.25;;
25263;SDS011;13211;51.796;5.808;2022-10-16T14:09:06;11.55;;;2.20;;
25263;SDS011;13211;51.796;5.808;2022-10-16T14:11:42;11.30;;;1.95;;
25263;SDS011;13211;51.796;5.808;2022-10-16T14:14:11;12.88;;;1.70;;
25263;SDS011;13211;51.796;5.808;2022-10-16T14:16:42;14.38;;;2.08;;
25263;SDS011;13211;51.796;5.808;2022-10-16T14:19:21;11.30;;;1.95;;
25263;SDS011;13211;51.796;5.808;2022-10-16T14:21:50;10.15;;;1.80;;
25263;SDS011;13211;51.796;5.808;2022-10-16T14:24:39;16.38;;;2.40;;
25263;SDS011;13211;51.796;5.808;2022-10-16T14:27:26;10.57;;;1.65;;
25263;SDS011;13211;51.796;5.808;2022-10-16T14:32:52;12.23;;;1.83;;
25263;SDS011;13211;51.796;5.808;2022-10-16T14:35:24;8.70;;;1.40;;
25263;SDS011;13211;51.796;5.808;2022-10-16T14:37:55;9.38;;;1.45;;
25263;SDS011;13211;51.796;5.808;2022-10-16T14:40:26;8.38;;;1.40;;
25263;SDS011;13211;51.796;5.808;2022-10-16T14:42:54;10.30;;;1.60;;
25263;SDS011;13211;51.796;5.808;2022-10-16T14:45:23;14.40;;;1.63;;
25263;SDS011;13211;51.796;5.808;2022-10-16T14:47:52;9.07;;;1.63;;
25263;SDS011;13211;51.796;5.808;2022-10-16T14:50:21;8.15;;;1.15;;
25263;SDS011;13211;51.796;5.808;2022-10-16T14:52:49;16.13;;;1.75;;
25263;SDS011;13211;51.796;5.808;2022-10-16T14:55:18;9.00;;;1.48;;
25263;SDS011;13211;51.796;5.808;2022-10-16T14:57:45;10.48;;;1.60;;
25263;SDS011;13211;51.796;5.808;2022-10-16T15:00:15;12.50;;;1.63;;
25263;SDS011;13211;51.796;5.808;2022-10-16T15:02:43;7.38;;;1.30;;
25263;SDS011;13211;51.796;5.808;2022-10-16T15:07:45;11.70;;;1.45;;
25263;SDS011;13211;51.796;5.808;2022-10-16T15:10:13;11.15;;;1.65;;
25263;SDS011;13211;51.796;5.808;2022-10-16T15:12:41;13.25;;;1.52;;
25263;SDS011;13211;51.796;5.808;2022-10-16T15:15:21;10.25;;;1.50;;
25263;SDS011;13211;51.796;5.808;2022-10-16T15:17:54;8.45;;;1.52;;
25263;SDS011;13211;51.796;5.808;2022-10-16T15:20:24;14.27;;;2.65;;
25263;SDS011;13211;51.796;5.808;2022-10-16T15:22:53;12.95;;;2.92;;
25263;SDS011;13211;51.796;5.808;2022-10-16T15:25:33;7.78;;;2.63;;
25263;SDS011;13211;51.796;5.808;2022-10-16T15:28:02;8.90;;;2.30;;
25263;SDS011;13211;51.796;5.808;2022-10-16T15:30:30;10.30;;;2.05;;
25263;SDS011;13211;51.796;5.808;2022-10-16T15:32:59;7.30;;;2.42;;
25263;SDS011;13211;51.796;5.808;2022-10-16T15:35:27;14.02;;;2.58;;
25263;SDS011;13211;51.796;5.808;2022-10-16T15:37:54;12.13;;;1.98;;
25263;SDS011;13211;51.796;5.808;2022-10-16T15:40:22;9.00;;;2.13;;
25263;SDS011;13211;51.796;5.808;2022-10-16T15:42:50;9.10;;;1.98;;
25263;SDS011;13211;51.796;5.808;2022-10-16T15:45:18;11.73;;;2.13;;
25263;SDS011;13211;51.796;5.808;2022-10-16T15:47:47;11.43;;;1.80;;
25263;SDS011;13211;51.796;5.808;2022-10-16T15:50:15;7.47;;;1.52;;
25263;SDS011;13211;51.796;5.808;2022-10-16T15:52:43;9.35;;;1.80;;
25263;SDS011;13211;51.796;5.808;2022-10-16T15:55:11;12.48;;;3.05;;
25263;SDS011;13211;51.796;5.808;2022-10-16T15:57:40;6.90;;;1.43;;
25263;SDS011;13211;51.796;5.808;2022-10-16T16:00:10;15.60;;;2.17;;
25263;SDS011;13211;51.796;5.808;2022-10-16T16:02:39;20.45;;;1.98;;
25263;SDS011;13211;51.796;5.808;2022-10-16T16:05:08;12.27;;;2.08;;
25263;SDS011;13211;51.796;5.808;2022-10-16T16:10:05;11.88;;;1.95;;
25263;SDS011;13211;51.796;5.808;2022-10-16T16:12:35;18.03;;;2.47;;
25263;SDS011;13211;51.796;5.808;2022-10-16T16:15:04;9.57;;;2.00;;
25263;SDS011;13211;51.796;5.808;2022-10-16T16:17:32;11.52;;;2.15;;
25263;SDS011;13211;51.796;5.808;2022-10-16T16:20:03;8.98;;;2.03;;
25263;SDS011;13211;51.796;5.808;2022-10-16T16:22:31;8.82;;;2.08;;
25263;SDS011;13211;51.796;5.808;2022-10-16T16:24:59;14.98;;;1.98;;
25263;SDS011;13211;51.796;5.808;2022-10-16T16:27:26;13.43;;;2.00;;
25263;SDS011;13211;51.796;5.808;2022-10-16T16:29:56;11.80;;;1.50;;
25263;SDS011;13211;51.796;5.808;2022-10-16T16:32:24;9.35;;;1.95;;
25263;SDS011;13211;51.796;5.808;2022-10-16T16:34:52;12.18;;;2.05;;
25263;SDS011;13211;51.796;5.808;2022-10-16T16:37:19;12.30;;;1.45;;
25263;SDS011;13211;51.796;5.808;2022-10-16T16:39:47;9.43;;;1.60;;
25263;SDS011;13211;51.796;5.808;2022-10-16T16:42:15;13.95;;;3.20;;
25263;SDS011;13211;51.796;5.808;2022-10-16T16:44:47;14.02;;;2.97;;
25263;SDS011;13211;51.796;5.808;2022-10-16T16:47:14;10.50;;;2.75;;
25263;SDS011;13211;51.796;5.808;2022-10-16T16:49:42;14.52;;;3.40;;
25263;SDS011;13211;51.796;5.808;2022-10-16T16:52:12;11.48;;;3.17;;
25263;SDS011;13211;51.796;5.808;2022-10-16T16:54:40;8.18;;;2.97;;
25263;SDS011;13211;51.796;5.808;2022-10-16T16:57:10;11.10;;;3.28;;
25263;SDS011;13211;51.796;5.808;2022-10-16T16:59:37;11.02;;;3.20;;
25263;SDS011;13211;51.796;5.808;2022-10-16T17:02:05;15.00;;;3.45;;
25263;SDS011;13211;51.796;5.808;2022-10-16T17:04:33;13.55;;;3.45;;
25263;SDS011;13211;51.796;5.808;2022-10-16T17:07:01;14.68;;;3.03;;
25263;SDS011;13211;51.796;5.808;2022-10-16T17:09:31;16.70;;;5.55;;
25263;SDS011;13211;51.796;5.808;2022-10-16T17:12:00;15.13;;;4.75;;
25263;SDS011;13211;51.796;5.808;2022-10-16T17:14:28;13.88;;;4.80;;
25263;SDS011;13211;51.796;5.808;2022-10-16T17:16:55;10.80;;;4.07;;
25263;SDS011;13211;51.796;5.808;2022-10-16T17:19:23;9.98;;;2.40;;
25263;SDS011;13211;51.796;5.808;2022-10-16T17:21:52;10.02;;;1.95;;